Hovedside
METAR-TAF:

METAR-TAF

Lufthavner :

Bodø, Norge

Bodø lufthavn

breddegrad: 67-16N, lengdegrad: 014-22E, høyde over havet: 1 m

Gjeldene værobservasjon

Denne rapporten ble laget for 36 minutter siden, klokken 11:20 UTC
Vind 21 kt fra Øst
Temperatur 8°C
Luftfuktighet 31%
Trykk 1016 hPa
Sikt 10 km eller mer
ingen skyer under 1500 m og ingen bygeskyer

METAR: ENBO 221120Z 08021KT CAVOK 08/M08 Q1016 NOSIG

Tid: 13:56 (11:56 UTC)

Varsel

Varsel gyldig fra 22. klokken 06 UTC til 23. klokken 06 UTC
Vind 18 kt fra Øst
Sikt 10 km eller mer
ingen skyer under 1500 m og ingen bygeskyer

TAF: ENBO 2206/2306 09018KT CAVOK

Værobservasjoner og værvarsel for over 4000 flyplasser (METAR- og TAF-rapporter).

Tilgjengelige stasjoner er representert av de røde og gule prikkene på kartet.

Hold musepekeren over prikken for å se navnet på stasjonen.

Klikk så for å se værobservasjoner og -varsler.

For å forandre kartet kan du klikke på den grønne knappen med svart kryss for å zoome inn, på den grønne knappen med strek for å zoome ut, eller på de grønne pilene for å se tilstøtende kart.


METAR-TAF: